createdAt,value
2023-03-22T00:03:42.591Z,24.60
2023-03-22T00:07:42.724Z,24.58
2023-03-22T00:11:42.910Z,24.58
2023-03-22T00:15:43.055Z,24.57
2023-03-22T00:19:43.193Z,24.55
2023-03-22T00:23:43.775Z,24.57
2023-03-22T00:27:43.546Z,24.54
2023-03-22T00:31:43.699Z,24.55
2023-03-22T00:35:43.903Z,24.54
2023-03-22T00:39:45.356Z,24.55
2023-03-22T00:43:44.278Z,24.54
2023-03-22T00:47:44.448Z,24.53
2023-03-22T00:51:44.625Z,24.54
2023-03-22T00:55:44.853Z,24.53
2023-03-22T00:59:45.032Z,24.53
2023-03-22T01:03:45.275Z,24.51
2023-03-22T01:07:45.414Z,24.53
2023-03-22T01:11:45.593Z,24.50
2023-03-22T01:15:45.800Z,24.50
2023-03-22T01:19:46.340Z,24.47
2023-03-22T01:23:46.241Z,24.50
2023-03-22T01:27:46.410Z,24.50
2023-03-22T01:31:47.349Z,24.47
2023-03-22T01:35:46.846Z,24.48
2023-03-22T01:39:47.088Z,24.46
2023-03-22T01:43:47.274Z,24.46
2023-03-22T01:47:47.542Z,24.46
2023-03-22T01:51:47.668Z,24.41
2023-03-22T01:55:47.697Z,24.44
2023-03-22T01:59:47.617Z,24.40
2023-03-22T02:03:49.337Z,24.44
2023-03-22T02:07:47.869Z,24.40
2023-03-22T02:11:47.529Z,24.40
2023-03-22T02:15:47.798Z,24.41
2023-03-22T02:19:47.628Z,24.41
2023-03-22T02:23:47.612Z,24.43
2023-03-22T02:27:47.610Z,24.40
2023-03-22T02:31:47.495Z,24.41
2023-03-22T02:35:47.490Z,24.38
2023-03-22T02:39:47.491Z,24.41
2023-03-22T02:43:47.505Z,24.37
2023-03-22T02:47:47.473Z,24.38
2023-03-22T02:51:50.832Z,24.37
2023-03-22T02:55:47.838Z,24.35
2023-03-22T02:59:47.257Z,24.37
2023-03-22T03:03:47.225Z,24.34
2023-03-22T03:07:47.233Z,24.33
2023-03-22T03:11:47.210Z,24.33
2023-03-22T03:15:47.081Z,24.33
2023-03-22T03:19:47.270Z,24.34
2023-03-22T03:23:47.237Z,24.31
2023-03-22T03:27:47.202Z,24.30
2023-03-22T03:31:47.145Z,24.31
2023-03-22T03:35:47.374Z,24.33
2023-03-22T03:39:47.026Z,24.30
2023-03-22T03:43:46.991Z,24.30
2023-03-22T03:47:47.123Z,24.31
2023-03-22T03:51:46.934Z,24.28
2023-03-22T03:55:46.914Z,24.30
2023-03-22T03:59:47.082Z,24.27
2023-03-22T04:03:47.323Z,24.27
2023-03-22T04:07:47.322Z,24.28
2023-03-22T04:11:47.213Z,24.27
2023-03-22T04:15:47.236Z,24.25
2023-03-22T04:19:47.213Z,24.27
2023-03-22T04:23:47.125Z,24.27
2023-03-22T04:27:47.171Z,24.25
2023-03-22T04:31:47.067Z,24.23
2023-03-22T04:35:47.117Z,24.25
2023-03-22T04:39:46.974Z,24.25
2023-03-22T04:43:47.068Z,24.24
2023-03-22T04:47:47.394Z,24.23
2023-03-22T04:51:47.351Z,24.21
2023-03-22T04:55:47.602Z,24.24
2023-03-22T04:59:47.787Z,24.23
2023-03-22T05:03:48.030Z,24.21
2023-03-22T05:07:48.226Z,24.23
2023-03-22T05:11:48.384Z,24.24
2023-03-22T05:15:48.473Z,24.21
2023-03-22T05:19:48.471Z,24.20
2023-03-22T05:23:51.465Z,24.23
2023-03-22T05:27:48.611Z,24.23
2023-03-22T05:31:48.667Z,24.25
2023-03-22T05:35:48.469Z,24.35
2023-03-22T05:39:48.523Z,24.47
2023-03-22T05:43:48.397Z,24.57
2023-03-22T05:47:48.478Z,24.65
2023-03-22T05:51:48.387Z,24.71
2023-03-22T05:55:48.324Z,24.79
2023-03-22T05:59:48.289Z,24.84
2023-03-22T06:03:48.186Z,24.89
2023-03-22T06:07:48.525Z,24.91
2023-03-22T06:11:48.119Z,24.99
2023-03-22T06:15:48.218Z,25.02
2023-03-22T06:19:48.052Z,25.08
2023-03-22T06:23:48.691Z,25.13
2023-03-22T06:27:48.074Z,25.15
2023-03-22T06:31:48.104Z,25.21
2023-03-22T06:35:49.814Z,25.26
2023-03-22T06:39:48.642Z,25.30
2023-03-22T06:43:48.089Z,25.39
2023-03-22T06:47:48.087Z,25.47
2023-03-22T06:51:48.850Z,25.60
2023-03-22T06:55:49.078Z,25.67
2023-03-22T06:59:49.864Z,25.69
2023-03-22T07:03:49.098Z,25.72
2023-03-22T07:12:09.913Z,25.79
2023-03-22T07:16:09.407Z,25.87
2023-03-22T07:24:27.445Z,25.95
2023-03-22T07:28:27.578Z,26.03
2023-03-22T07:32:26.671Z,26.04
2023-03-22T07:36:26.714Z,26.07
2023-03-22T07:40:28.760Z,26.08
2023-03-22T07:44:28.210Z,26.08
2023-03-22T07:48:27.724Z,25.93
2023-03-22T07:52:27.630Z,25.76
2023-03-22T07:56:26.810Z,25.69
2023-03-22T08:00:29.556Z,25.69
2023-03-22T08:04:26.865Z,25.73
2023-03-22T08:08:27.444Z,25.74
2023-03-22T08:12:27.112Z,25.77
2023-03-22T08:16:26.929Z,25.74
2023-03-22T08:20:27.045Z,25.74
2023-03-22T08:24:26.718Z,25.81
2023-03-22T08:28:26.665Z,25.83
2023-03-22T08:32:30.050Z,25.69
2023-03-22T08:36:26.635Z,25.62
2023-03-22T08:40:26.701Z,25.76
2023-03-22T08:44:26.475Z,25.87
2023-03-22T08:48:26.473Z,25.97
2023-03-22T08:52:26.424Z,26.01
2023-03-22T08:56:26.563Z,25.91
2023-03-22T09:00:30.135Z,25.84
2023-03-22T09:04:28.122Z,25.83
2023-03-22T09:08:26.476Z,25.79
2023-03-22T09:12:26.594Z,25.77
2023-03-22T09:16:26.762Z,25.70
2023-03-22T09:20:26.848Z,25.59
2023-03-22T09:24:27.487Z,25.36
2023-03-22T09:37:06.711Z,25.62
2023-03-22T09:41:05.351Z,25.43
2023-03-22T09:49:24.258Z,25.69
2023-03-22T09:53:25.973Z,25.88
2023-03-22T09:57:37.411Z,26.01
2023-03-22T10:10:02.584Z,26.31
2023-03-22T10:14:02.398Z,26.38
2023-03-22T10:18:02.736Z,26.45
2023-03-22T10:22:02.337Z,26.52
2023-03-22T10:26:03.096Z,26.58
2023-03-22T10:30:04.101Z,26.60
2023-03-22T10:34:02.949Z,26.65
2023-03-22T10:38:04.027Z,26.56
2023-03-22T10:42:05.737Z,26.56
2023-03-22T10:46:02.641Z,26.60
2023-03-22T10:50:02.729Z,26.63
2023-03-22T10:54:05.591Z,26.65
2023-03-22T10:58:02.479Z,26.65
2023-03-22T11:02:03.610Z,26.69
2023-03-22T11:06:01.957Z,26.74
2023-03-22T11:10:01.959Z,26.75
2023-03-22T11:14:01.970Z,26.79
2023-03-22T11:18:03.681Z,26.79
2023-03-22T11:22:01.879Z,26.83
2023-03-22T11:26:03.679Z,26.83
2023-03-22T11:30:09.326Z,26.92
2023-03-22T11:34:01.874Z,26.89
2023-03-22T11:38:01.817Z,26.96
2023-03-22T11:42:01.940Z,27.00
2023-03-22T11:46:01.612Z,27.09
2023-03-22T11:50:03.060Z,27.11
2023-03-22T11:54:01.465Z,27.17
2023-03-22T11:58:01.443Z,27.23
2023-03-22T12:02:01.500Z,27.29
2023-03-22T12:06:01.435Z,27.32
2023-03-22T12:10:01.395Z,27.37
2023-03-22T12:14:01.322Z,27.40
2023-03-22T12:18:01.714Z,27.41
2023-03-22T12:22:01.442Z,27.43
2023-03-22T12:26:02.575Z,27.46
2023-03-22T12:30:01.195Z,27.47
2023-03-22T12:34:01.699Z,27.51
2023-03-22T12:38:03.715Z,27.53
2023-03-22T12:42:01.028Z,27.53
2023-03-22T12:46:00.967Z,27.54
2023-03-22T12:50:00.910Z,27.54
2023-03-22T12:54:00.910Z,27.56
2023-03-22T12:58:00.849Z,27.58
2023-03-22T13:02:00.898Z,27.58
2023-03-22T13:06:00.797Z,27.57
2023-03-22T13:10:00.751Z,27.58
2023-03-22T13:14:00.717Z,27.57
2023-03-22T13:18:00.715Z,27.58
2023-03-22T13:22:00.668Z,27.64
2023-03-22T13:26:00.612Z,27.60
2023-03-22T13:30:00.663Z,27.61
2023-03-22T13:34:00.820Z,27.62
2023-03-22T13:38:00.912Z,27.61
2023-03-22T13:42:01.052Z,27.60
2023-03-22T13:46:01.365Z,27.61
2023-03-22T13:50:01.374Z,27.62
2023-03-22T13:54:01.578Z,27.60
2023-03-22T13:58:01.683Z,27.57
2023-03-22T14:02:01.842Z,27.56
2023-03-22T14:06:02.081Z,27.54
2023-03-22T14:10:02.227Z,27.53
2023-03-22T14:14:02.338Z,27.53
2023-03-22T14:18:02.630Z,27.50
2023-03-22T14:47:04.477Z,27.38
2023-03-22T14:51:04.452Z,27.34
2023-03-22T14:55:04.372Z,27.32
2023-03-22T14:59:04.445Z,27.27
2023-03-22T15:03:05.215Z,27.24
2023-03-22T15:07:04.245Z,27.22
2023-03-22T15:11:04.236Z,27.20
2023-03-22T15:15:04.505Z,27.14
2023-03-22T15:19:04.496Z,27.10
2023-03-22T15:23:06.559Z,27.10
2023-03-22T15:27:04.539Z,27.05
2023-03-22T15:31:06.638Z,27.05
2023-03-22T15:35:04.475Z,26.97
2023-03-22T15:39:04.527Z,26.96
2023-03-22T15:43:04.509Z,26.95
2023-03-22T15:47:04.544Z,26.90
2023-03-22T15:51:04.714Z,26.85
2023-03-22T15:55:04.624Z,26.81
2023-03-22T15:59:04.758Z,26.76
2023-03-22T16:03:04.829Z,26.75
2023-03-22T16:07:04.919Z,26.75
2023-03-22T16:11:05.016Z,26.71
2023-03-22T16:15:05.183Z,26.69
2023-03-22T16:19:05.296Z,26.69
2023-03-22T16:23:05.374Z,26.62
2023-03-22T16:27:05.508Z,26.63
2023-03-22T16:31:05.938Z,26.59
2023-03-22T16:35:05.798Z,26.58
2023-03-22T16:39:06.057Z,26.56
2023-03-22T16:43:06.257Z,26.52
2023-03-22T16:47:06.393Z,26.49
2023-03-22T16:51:06.596Z,26.46
2023-03-22T16:55:06.775Z,26.42
2023-03-22T16:59:06.953Z,26.44
2023-03-22T17:03:07.227Z,26.39
2023-03-22T17:07:07.184Z,26.36
2023-03-22T17:11:08.171Z,26.35
2023-03-22T17:15:07.059Z,26.31
2023-03-22T17:19:07.032Z,26.30
2023-03-22T17:23:07.032Z,26.25
2023-03-22T17:27:06.975Z,26.23
2023-03-22T17:31:07.278Z,26.21
2023-03-22T17:35:06.866Z,26.17
2023-03-22T17:39:23.142Z,26.15
2023-03-22T17:43:07.840Z,26.17
2023-03-22T17:47:34.733Z,26.13
2023-03-22T17:51:07.786Z,26.08
2023-03-22T17:59:06.711Z,26.03
2023-03-22T18:03:06.704Z,26.01
2023-03-22T18:07:06.638Z,25.97
2023-03-22T18:11:06.682Z,25.97
2023-03-22T18:15:06.585Z,25.93
2023-03-22T18:19:06.559Z,25.93
2023-03-22T18:23:06.472Z,25.91
2023-03-22T18:27:11.215Z,25.90
2023-03-22T18:31:07.496Z,25.87
2023-03-22T18:35:06.388Z,25.84
2023-03-22T18:43:07.319Z,25.84
2023-03-22T18:47:07.253Z,25.80
2023-03-22T18:51:11.556Z,25.80
2023-03-22T18:55:21.709Z,25.80
2023-03-22T18:59:07.195Z,25.77
2023-03-22T19:07:06.265Z,25.73
2023-03-22T19:11:06.295Z,25.72
2023-03-22T19:19:07.006Z,25.69
2023-03-22T19:23:06.014Z,25.67
2023-03-22T19:31:06.911Z,25.63
2023-03-22T19:35:05.877Z,25.62
2023-03-22T19:39:11.495Z,25.60
2023-03-22T19:43:06.835Z,25.59
2023-03-22T19:47:05.842Z,25.56
2023-03-22T19:51:05.762Z,25.56
2023-03-22T19:55:05.783Z,25.53
2023-03-22T19:59:11.521Z,25.53
2023-03-22T20:03:06.848Z,25.52
2023-03-22T20:07:05.805Z,25.53
2023-03-22T20:11:06.751Z,25.47
2023-03-22T20:15:05.855Z,25.49
2023-03-22T20:19:05.978Z,25.46
2023-03-22T20:23:06.417Z,25.46
2023-03-22T20:27:06.442Z,25.46
2023-03-22T20:31:06.260Z,25.46
2023-03-22T20:35:06.332Z,25.43
2023-03-22T20:39:06.459Z,25.44
2023-03-22T20:43:06.579Z,25.43
2023-03-22T20:47:06.696Z,25.44
2023-03-22T20:51:06.823Z,25.42
2023-03-22T20:55:07.002Z,25.43
2023-03-22T20:59:07.177Z,25.40
2023-03-22T21:03:07.309Z,25.40
2023-03-22T21:07:07.431Z,25.39
2023-03-22T21:11:07.657Z,25.39
2023-03-22T21:15:07.782Z,25.37
2023-03-22T21:19:07.972Z,25.36
2023-03-22T21:23:08.193Z,25.36
2023-03-22T21:27:08.375Z,25.35
2023-03-22T21:31:08.646Z,25.35
2023-03-22T21:35:08.774Z,25.35
2023-03-22T21:39:08.979Z,25.35
2023-03-22T21:43:09.071Z,25.32
2023-03-22T21:47:09.341Z,25.30
2023-03-22T21:51:09.488Z,25.29
2023-03-22T21:55:09.696Z,25.30
2023-03-22T21:59:09.931Z,25.28
2023-03-22T22:03:10.141Z,25.26
2023-03-22T22:07:10.326Z,25.28
2023-03-22T22:11:10.562Z,25.29
2023-03-22T22:15:10.777Z,25.26
2023-03-22T22:19:10.969Z,25.25
2023-03-22T22:23:10.942Z,25.25
2023-03-22T22:27:10.908Z,25.22
2023-03-22T22:31:10.888Z,25.23
2023-03-22T22:35:10.854Z,25.28
2023-03-22T22:39:10.832Z,25.22
2023-03-22T22:43:10.800Z,25.21
2023-03-22T22:47:10.770Z,25.21
2023-03-22T22:51:11.359Z,25.19
2023-03-22T22:55:10.672Z,25.18
2023-03-22T22:59:11.799Z,25.18
2023-03-22T23:03:10.827Z,25.15
2023-03-22T23:07:10.732Z,25.18
2023-03-22T23:11:10.704Z,25.16
2023-03-22T23:15:15.288Z,25.15
2023-03-22T23:19:11.625Z,25.15
2023-03-22T23:23:10.608Z,25.13
2023-03-22T23:27:10.696Z,25.12
2023-03-22T23:31:10.858Z,25.12
2023-03-22T23:35:11.897Z,25.12
2023-03-22T23:39:11.222Z,25.11
2023-03-22T23:43:11.388Z,25.09
2023-03-22T23:47:11.548Z,25.09
2023-03-22T23:51:11.638Z,25.11
2023-03-22T23:55:11.713Z,25.09
2023-03-22T23:59:11.887Z,25.09
